sensor_id;sensor_type;location;lat;lon;timestamp;temperature;humidity
38209;DHT22;24016;52.102;11.584;2023-07-31T00:01:04;15.60;99.90
38209;DHT22;24016;52.102;11.584;2023-07-31T00:03:30;15.60;99.90
38209;DHT22;24016;52.102;11.584;2023-07-31T00:05:55;15.70;99.90
38209;DHT22;24016;52.102;11.584;2023-07-31T00:08:21;15.70;99.90
38209;DHT22;24016;52.102;11.584;2023-07-31T00:10:46;15.70;99.90
38209;DHT22;24016;52.102;11.584;2023-07-31T00:13:12;15.80;99.90
38209;DHT22;24016;52.102;11.584;2023-07-31T00:15:37;15.80;99.90
38209;DHT22;24016;52.102;11.584;2023-07-31T00:18:03;15.90;99.90
38209;DHT22;24016;52.102;11.584;2023-07-31T00:20:29;15.90;99.90
38209;DHT22;24016;52.102;11.584;2023-07-31T00:22:54;15.90;99.90
38209;DHT22;24016;52.102;11.584;2023-07-31T00:25:20;15.90;99.90
38209;DHT22;24016;52.102;11.584;2023-07-31T00:27:46;15.90;99.90
38209;DHT22;24016;52.102;11.584;2023-07-31T00:30:11;15.80;99.90
38209;DHT22;24016;52.102;11.584;2023-07-31T00:32:37;15.80;99.90
38209;DHT22;24016;52.102;11.584;2023-07-31T00:35:03;15.70;99.90
38209;DHT22;24016;52.102;11.584;2023-07-31T00:37:28;15.70;99.90
38209;DHT22;24016;52.102;11.584;2023-07-31T00:39:54;15.60;99.90
38209;DHT22;24016;52.102;11.584;2023-07-31T00:42:20;15.60;99.90
38209;DHT22;24016;52.102;11.584;2023-07-31T00:44:45;15.50;99.90
38209;DHT22;24016;52.102;11.584;2023-07-31T00:47:11;15.50;99.90
38209;DHT22;24016;52.102;11.584;2023-07-31T00:49:37;15.50;99.90
38209;DHT22;24016;52.102;11.584;2023-07-31T00:52:03;15.50;99.90
38209;DHT22;24016;52.102;11.584;2023-07-31T00:54:29;15.50;99.90
38209;DHT22;24016;52.102;11.584;2023-07-31T00:56:54;15.40;99.90
38209;DHT22;24016;52.102;11.584;2023-07-31T00:59:20;15.40;99.90
38209;DHT22;24016;52.102;11.584;2023-07-31T01:01:46;15.40;99.90
38209;DHT22;24016;52.102;11.584;2023-07-31T01:04:12;15.40;99.90
38209;DHT22;24016;52.102;11.584;2023-07-31T01:07:04;15.40;99.90
38209;DHT22;24016;52.102;11.584;2023-07-31T01:09:50;15.40;99.90
38209;DHT22;24016;52.102;11.584;2023-07-31T01:12:19;15.40;99.90
38209;DHT22;24016;52.102;11.584;2023-07-31T01:17:27;15.40;99.90
38209;DHT22;24016;52.102;11.584;2023-07-31T01:19:54;15.30;99.90
38209;DHT22;24016;52.102;11.584;2023-07-31T01:31:25;15.10;99.90
38209;DHT22;24016;52.102;11.584;2023-07-31T01:33:53;15.10;99.90
38209;DHT22;24016;52.102;11.584;2023-07-31T01:36:21;15.00;99.90
38209;DHT22;24016;52.102;11.584;2023-07-31T01:38:47;15.00;99.90
38209;DHT22;24016;52.102;11.584;2023-07-31T01:41:12;14.90;99.90
38209;DHT22;24016;52.102;11.584;2023-07-31T01:43:39;14.90;99.90
38209;DHT22;24016;52.102;11.584;2023-07-31T01:46:04;14.80;99.90
38209;DHT22;24016;52.102;11.584;2023-07-31T01:48:30;14.70;99.90
38209;DHT22;24016;52.102;11.584;2023-07-31T01:51:01;14.70;99.90
38209;DHT22;24016;52.102;11.584;2023-07-31T01:53:26;14.60;99.90
38209;DHT22;24016;52.102;11.584;2023-07-31T01:55:52;14.60;99.90
38209;DHT22;24016;52.102;11.584;2023-07-31T01:58:17;14.60;99.90
38209;DHT22;24016;52.102;11.584;2023-07-31T02:00:43;14.50;99.90
38209;DHT22;24016;52.102;11.584;2023-07-31T02:03:09;14.50;99.90
38209;DHT22;24016;52.102;11.584;2023-07-31T02:05:34;14.40;99.90
38209;DHT22;24016;52.102;11.584;2023-07-31T02:08:00;14.50;99.90
38209;DHT22;24016;52.102;11.584;2023-07-31T02:10:25;14.50;99.90
38209;DHT22;24016;52.102;11.584;2023-07-31T02:12:51;14.40;99.90
38209;DHT22;24016;52.102;11.584;2023-07-31T02:15:16;14.50;99.90
38209;DHT22;24016;52.102;11.584;2023-07-31T02:17:42;14.40;99.90
38209;DHT22;24016;52.102;11.584;2023-07-31T02:20:08;14.40;99.90
38209;DHT22;24016;52.102;11.584;2023-07-31T02:22:34;14.30;99.90
38209;DHT22;24016;52.102;11.584;2023-07-31T02:24:59;14.30;99.90
38209;DHT22;24016;52.102;11.584;2023-07-31T02:27:25;14.30;99.90
38209;DHT22;24016;52.102;11.584;2023-07-31T02:29:52;14.30;99.90
38209;DHT22;24016;52.102;11.584;2023-07-31T02:32:18;14.30;99.90
38209;DHT22;24016;52.102;11.584;2023-07-31T02:34:44;14.30;99.90
38209;DHT22;24016;52.102;11.584;2023-07-31T02:37:09;14.30;99.90
38209;DHT22;24016;52.102;11.584;2023-07-31T02:39:35;14.30;99.90
38209;DHT22;24016;52.102;11.584;2023-07-31T02:42:00;14.30;99.90
38209;DHT22;24016;52.102;11.584;2023-07-31T02:44:26;14.30;99.90
38209;DHT22;24016;52.102;11.584;2023-07-31T02:46:51;14.30;99.90
38209;DHT22;24016;52.102;11.584;2023-07-31T02:49:17;14.20;99.90
38209;DHT22;24016;52.102;11.584;2023-07-31T02:51:42;14.20;99.90
38209;DHT22;24016;52.102;11.584;2023-07-31T02:54:08;14.10;99.90
38209;DHT22;24016;52.102;11.584;2023-07-31T02:56:34;14.10;99.90
38209;DHT22;24016;52.102;11.584;2023-07-31T02:58:59;14.10;99.90
38209;DHT22;24016;52.102;11.584;2023-07-31T03:01:25;14.10;99.90
38209;DHT22;24016;52.102;11.584;2023-07-31T03:03:51;14.10;99.90
38209;DHT22;24016;52.102;11.584;2023-07-31T03:06:16;14.10;99.90
38209;DHT22;24016;52.102;11.584;2023-07-31T03:08:42;14.00;99.90
38209;DHT22;24016;52.102;11.584;2023-07-31T03:11:07;14.00;99.90
38209;DHT22;24016;52.102;11.584;2023-07-31T03:13:33;14.00;99.90
38209;DHT22;24016;52.102;11.584;2023-07-31T03:15:58;14.10;99.90
38209;DHT22;24016;52.102;11.584;2023-07-31T03:18:24;14.10;99.90
38209;DHT22;24016;52.102;11.584;2023-07-31T03:20:49;14.10;99.90
38209;DHT22;24016;52.102;11.584;2023-07-31T03:23:15;14.10;99.90
38209;DHT22;24016;52.102;11.584;2023-07-31T03:25:54;14.20;99.90
38209;DHT22;24016;52.102;11.584;2023-07-31T03:28:20;14.20;99.90
38209;DHT22;24016;52.102;11.584;2023-07-31T03:30:46;14.20;99.90
38209;DHT22;24016;52.102;11.584;2023-07-31T03:33:11;14.30;99.90
38209;DHT22;24016;52.102;11.584;2023-07-31T03:35:37;14.20;99.90
38209;DHT22;24016;52.102;11.584;2023-07-31T03:38:02;14.30;99.90
38209;DHT22;24016;52.102;11.584;2023-07-31T03:40:28;14.30;99.90
38209;DHT22;24016;52.102;11.584;2023-07-31T03:42:53;14.20;99.90
38209;DHT22;24016;52.102;11.584;2023-07-31T03:45:19;14.20;99.90
38209;DHT22;24016;52.102;11.584;2023-07-31T03:47:45;14.20;99.90
38209;DHT22;24016;52.102;11.584;2023-07-31T03:50:10;14.30;99.90
38209;DHT22;24016;52.102;11.584;2023-07-31T03:52:36;14.30;99.90
38209;DHT22;24016;52.102;11.584;2023-07-31T03:55:01;14.30;99.90
38209;DHT22;24016;52.102;11.584;2023-07-31T03:57:27;14.30;99.90
38209;DHT22;24016;52.102;11.584;2023-07-31T03:59:52;14.30;99.90
38209;DHT22;24016;52.102;11.584;2023-07-31T04:02:18;14.30;99.90
38209;DHT22;24016;52.102;11.584;2023-07-31T04:04:44;14.30;99.90
38209;DHT22;24016;52.102;11.584;2023-07-31T04:07:09;14.40;99.90
38209;DHT22;24016;52.102;11.584;2023-07-31T04:09:35;14.30;99.90
38209;DHT22;24016;52.102;11.584;2023-07-31T04:12:00;14.30;99.90
38209;DHT22;24016;52.102;11.584;2023-07-31T04:14:26;14.30;99.90
38209;DHT22;24016;52.102;11.584;2023-07-31T04:16:51;14.30;99.90
38209;DHT22;24016;52.102;11.584;2023-07-31T04:19:17;14.30;99.90
38209;DHT22;24016;52.102;11.584;2023-07-31T04:21:43;14.40;99.90
38209;DHT22;24016;52.102;11.584;2023-07-31T04:24:09;14.40;99.90
38209;DHT22;24016;52.102;11.584;2023-07-31T04:26:34;14.40;99.90
38209;DHT22;24016;52.102;11.584;2023-07-31T04:29:00;14.40;99.90
38209;DHT22;24016;52.102;11.584;2023-07-31T04:31:25;14.40;99.90
38209;DHT22;24016;52.102;11.584;2023-07-31T04:33:51;14.40;99.90
38209;DHT22;24016;52.102;11.584;2023-07-31T04:36:16;14.40;99.90
38209;DHT22;24016;52.102;11.584;2023-07-31T04:38:42;14.40;99.90
38209;DHT22;24016;52.102;11.584;2023-07-31T04:41:07;14.40;99.90
38209;DHT22;24016;52.102;11.584;2023-07-31T04:43:33;14.30;99.90
38209;DHT22;24016;52.102;11.584;2023-07-31T04:45:58;14.30;99.90
38209;DHT22;24016;52.102;11.584;2023-07-31T04:48:24;14.30;99.90
38209;DHT22;24016;52.102;11.584;2023-07-31T04:50:50;14.40;99.90
38209;DHT22;24016;52.102;11.584;2023-07-31T04:53:15;14.40;99.90
38209;DHT22;24016;52.102;11.584;2023-07-31T04:55:41;14.40;99.90
38209;DHT22;24016;52.102;11.584;2023-07-31T04:58:06;14.40;99.90
38209;DHT22;24016;52.102;11.584;2023-07-31T05:00:32;14.40;99.90
38209;DHT22;24016;52.102;11.584;2023-07-31T05:02:57;14.40;99.90
38209;DHT22;24016;52.102;11.584;2023-07-31T05:05:23;14.40;99.90
38209;DHT22;24016;52.102;11.584;2023-07-31T05:07:48;14.50;99.90
38209;DHT22;24016;52.102;11.584;2023-07-31T05:10:14;14.50;99.90
38209;DHT22;24016;52.102;11.584;2023-07-31T05:12:40;14.50;99.90
38209;DHT22;24016;52.102;11.584;2023-07-31T05:15:05;14.50;99.90
38209;DHT22;24016;52.102;11.584;2023-07-31T05:17:31;14.60;99.90
38209;DHT22;24016;52.102;11.584;2023-07-31T05:19:57;14.60;99.90
38209;DHT22;24016;52.102;11.584;2023-07-31T05:22:22;14.60;99.90
38209;DHT22;24016;52.102;11.584;2023-07-31T05:24:48;14.60;99.90
38209;DHT22;24016;52.102;11.584;2023-07-31T05:27:14;14.60;99.90
38209;DHT22;24016;52.102;11.584;2023-07-31T05:29:44;14.50;99.90
38209;DHT22;24016;52.102;11.584;2023-07-31T05:32:09;14.60;99.90
38209;DHT22;24016;52.102;11.584;2023-07-31T05:34:35;14.60;99.90
38209;DHT22;24016;52.102;11.584;2023-07-31T05:37:00;14.60;99.90
38209;DHT22;24016;52.102;11.584;2023-07-31T05:39:26;14.70;99.90
38209;DHT22;24016;52.102;11.584;2023-07-31T05:41:51;14.70;99.90
38209;DHT22;24016;52.102;11.584;2023-07-31T05:44:17;14.70;99.90
38209;DHT22;24016;52.102;11.584;2023-07-31T05:46:42;14.70;99.90
38209;DHT22;24016;52.102;11.584;2023-07-31T05:49:08;14.60;99.90
38209;DHT22;24016;52.102;11.584;2023-07-31T05:51:33;14.60;99.90
38209;DHT22;24016;52.102;11.584;2023-07-31T05:53:59;14.60;99.90
38209;DHT22;24016;52.102;11.584;2023-07-31T05:56:24;14.60;99.90
38209;DHT22;24016;52.102;11.584;2023-07-31T05:58:52;14.60;99.90
38209;DHT22;24016;52.102;11.584;2023-07-31T06:01:17;14.60;99.90
38209;DHT22;24016;52.102;11.584;2023-07-31T06:03:43;14.70;99.90
38209;DHT22;24016;52.102;11.584;2023-07-31T06:06:09;14.60;99.90
38209;DHT22;24016;52.102;11.584;2023-07-31T06:08:35;14.70;99.90
38209;DHT22;24016;52.102;11.584;2023-07-31T06:11:00;14.60;99.90
38209;DHT22;24016;52.102;11.584;2023-07-31T06:13:26;14.50;99.90
38209;DHT22;24016;52.102;11.584;2023-07-31T06:15:52;14.50;99.90
38209;DHT22;24016;52.102;11.584;2023-07-31T06:18:17;14.40;99.90
38209;DHT22;24016;52.102;11.584;2023-07-31T06:20:43;14.40;99.90
38209;DHT22;24016;52.102;11.584;2023-07-31T06:23:08;14.50;99.90
38209;DHT22;24016;52.102;11.584;2023-07-31T06:25:34;14.40;99.90
38209;DHT22;24016;52.102;11.584;2023-07-31T06:27:59;14.40;99.90
38209;DHT22;24016;52.102;11.584;2023-07-31T06:30:25;14.30;99.90
38209;DHT22;24016;52.102;11.584;2023-07-31T06:32:50;14.30;99.90
38209;DHT22;24016;52.102;11.584;2023-07-31T06:35:16;14.30;99.90
38209;DHT22;24016;52.102;11.584;2023-07-31T06:37:41;14.30;99.90
38209;DHT22;24016;52.102;11.584;2023-07-31T06:40:09;14.30;99.90
38209;DHT22;24016;52.102;11.584;2023-07-31T06:42:35;14.30;99.90
38209;DHT22;24016;52.102;11.584;2023-07-31T06:45:02;14.30;99.90
38209;DHT22;24016;52.102;11.584;2023-07-31T06:47:27;14.40;99.90
38209;DHT22;24016;52.102;11.584;2023-07-31T06:49:53;14.40;99.90
38209;DHT22;24016;52.102;11.584;2023-07-31T06:52:18;14.40;99.90
38209;DHT22;24016;52.102;11.584;2023-07-31T06:54:56;14.40;99.90
38209;DHT22;24016;52.102;11.584;2023-07-31T06:57:25;14.40;99.90
38209;DHT22;24016;52.102;11.584;2023-07-31T06:59:50;14.50;99.90
38209;DHT22;24016;52.102;11.584;2023-07-31T07:02:16;14.50;99.90
38209;DHT22;24016;52.102;11.584;2023-07-31T07:04:42;14.60;99.90
38209;DHT22;24016;52.102;11.584;2023-07-31T07:07:07;14.60;99.90
38209;DHT22;24016;52.102;11.584;2023-07-31T07:09:33;14.80;99.90
38209;DHT22;24016;52.102;11.584;2023-07-31T07:11:58;14.80;99.90
38209;DHT22;24016;52.102;11.584;2023-07-31T07:14:24;14.90;99.90
38209;DHT22;24016;52.102;11.584;2023-07-31T07:16:52;14.90;99.90
38209;DHT22;24016;52.102;11.584;2023-07-31T07:19:18;15.00;99.90
38209;DHT22;24016;52.102;11.584;2023-07-31T07:21:43;15.10;99.90
38209;DHT22;24016;52.102;11.584;2023-07-31T07:24:09;15.20;99.90
38209;DHT22;24016;52.102;11.584;2023-07-31T07:26:34;15.30;99.90
38209;DHT22;24016;52.102;11.584;2023-07-31T07:29:00;15.30;99.90
38209;DHT22;24016;52.102;11.584;2023-07-31T07:31:27;15.30;99.90
38209;DHT22;24016;52.102;11.584;2023-07-31T07:33:53;15.40;99.90
38209;DHT22;24016;52.102;11.584;2023-07-31T07:36:19;15.30;99.90
38209;DHT22;24016;52.102;11.584;2023-07-31T07:38:45;15.30;99.90
38209;DHT22;24016;52.102;11.584;2023-07-31T07:41:10;15.30;99.90
38209;DHT22;24016;52.102;11.584;2023-07-31T07:43:36;15.30;99.90
38209;DHT22;24016;52.102;11.584;2023-07-31T07:46:02;15.40;99.90
38209;DHT22;24016;52.102;11.584;2023-07-31T07:48:27;15.50;99.90
38209;DHT22;24016;52.102;11.584;2023-07-31T07:50:53;15.60;99.90
38209;DHT22;24016;52.102;11.584;2023-07-31T07:53:18;15.60;99.90
38209;DHT22;24016;52.102;11.584;2023-07-31T07:55:44;15.60;99.90
38209;DHT22;24016;52.102;11.584;2023-07-31T07:58:09;15.50;99.90
38209;DHT22;24016;52.102;11.584;2023-07-31T08:00:35;15.60;99.90
38209;DHT22;24016;52.102;11.584;2023-07-31T08:03:00;15.60;99.90
38209;DHT22;24016;52.102;11.584;2023-07-31T08:05:26;15.70;99.90
38209;DHT22;24016;52.102;11.584;2023-07-31T08:07:52;15.90;99.90
38209;DHT22;24016;52.102;11.584;2023-07-31T08:10:17;16.10;99.90
38209;DHT22;24016;52.102;11.584;2023-07-31T08:12:43;16.40;99.90
38209;DHT22;24016;52.102;11.584;2023-07-31T08:15:08;16.50;99.90
38209;DHT22;24016;52.102;11.584;2023-07-31T08:17:34;16.90;99.90
38209;DHT22;24016;52.102;11.584;2023-07-31T08:19:59;16.90;99.90
38209;DHT22;24016;52.102;11.584;2023-07-31T08:22:25;17.20;99.90
38209;DHT22;24016;52.102;11.584;2023-07-31T08:24:51;17.50;99.90
38209;DHT22;24016;52.102;11.584;2023-07-31T08:27:16;17.60;99.90
38209;DHT22;24016;52.102;11.584;2023-07-31T08:29:42;17.60;99.90
38209;DHT22;24016;52.102;11.584;2023-07-31T08:32:07;17.60;99.90
38209;DHT22;24016;52.102;11.584;2023-07-31T08:34:33;17.50;99.90
38209;DHT22;24016;52.102;11.584;2023-07-31T08:36:58;17.50;99.90
38209;DHT22;24016;52.102;11.584;2023-07-31T08:39:24;17.60;99.90
38209;DHT22;24016;52.102;11.584;2023-07-31T08:41:50;17.80;99.90
38209;DHT22;24016;52.102;11.584;2023-07-31T08:44:16;18.10;99.90
38209;DHT22;24016;52.102;11.584;2023-07-31T08:46:42;18.30;99.90
38209;DHT22;24016;52.102;11.584;2023-07-31T08:49:09;18.50;99.90
38209;DHT22;24016;52.102;11.584;2023-07-31T08:51:36;18.80;99.90
38209;DHT22;24016;52.102;11.584;2023-07-31T08:54:02;18.80;99.90
38209;DHT22;24016;52.102;11.584;2023-07-31T08:56:29;18.70;99.90
38209;DHT22;24016;52.102;11.584;2023-07-31T08:58:58;18.60;99.90
38209;DHT22;24016;52.102;11.584;2023-07-31T09:01:23;18.80;99.90
38209;DHT22;24016;52.102;11.584;2023-07-31T09:03:50;18.90;99.90
38209;DHT22;24016;52.102;11.584;2023-07-31T09:06:18;19.10;99.90
38209;DHT22;24016;52.102;11.584;2023-07-31T09:08:46;19.30;99.90
38209;DHT22;24016;52.102;11.584;2023-07-31T09:11:12;19.40;99.90
38209;DHT22;24016;52.102;11.584;2023-07-31T09:13:39;19.40;99.90
38209;DHT22;24016;52.102;11.584;2023-07-31T09:16:05;19.40;99.90
38209;DHT22;24016;52.102;11.584;2023-07-31T09:18:30;19.40;99.90
38209;DHT22;24016;52.102;11.584;2023-07-31T09:21:03;19.30;99.90
38209;DHT22;24016;52.102;11.584;2023-07-31T09:23:44;19.10;99.90
38209;DHT22;24016;52.102;11.584;2023-07-31T09:26:10;18.80;99.90
38209;DHT22;24016;52.102;11.584;2023-07-31T09:28:37;18.70;99.90
38209;DHT22;24016;52.102;11.584;2023-07-31T09:31:03;18.50;99.90
38209;DHT22;24016;52.102;11.584;2023-07-31T09:33:28;18.50;99.90
38209;DHT22;24016;52.102;11.584;2023-07-31T09:35:54;18.40;99.90
38209;DHT22;24016;52.102;11.584;2023-07-31T09:38:19;18.40;99.90
38209;DHT22;24016;52.102;11.584;2023-07-31T09:40:46;18.30;99.90
38209;DHT22;24016;52.102;11.584;2023-07-31T09:43:17;18.20;99.90
38209;DHT22;24016;52.102;11.584;2023-07-31T09:45:43;18.30;99.90
38209;DHT22;24016;52.102;11.584;2023-07-31T09:48:11;18.20;99.90
38209;DHT22;24016;52.102;11.584;2023-07-31T09:50:41;18.30;99.90
38209;DHT22;24016;52.102;11.584;2023-07-31T09:53:07;18.30;99.90
38209;DHT22;24016;52.102;11.584;2023-07-31T09:55:33;18.20;99.90
38209;DHT22;24016;52.102;11.584;2023-07-31T09:57:58;18.10;99.90
38209;DHT22;24016;52.102;11.584;2023-07-31T10:00:25;18.20;99.90
38209;DHT22;24016;52.102;11.584;2023-07-31T10:02:53;18.20;99.90
38209;DHT22;24016;52.102;11.584;2023-07-31T10:05:19;18.30;99.90
38209;DHT22;24016;52.102;11.584;2023-07-31T10:07:53;18.60;99.90
38209;DHT22;24016;52.102;11.584;2023-07-31T10:10:20;19.00;99.90
38209;DHT22;24016;52.102;11.584;2023-07-31T10:12:48;19.40;99.90
38209;DHT22;24016;52.102;11.584;2023-07-31T10:15:14;19.70;99.90
38209;DHT22;24016;52.102;11.584;2023-07-31T10:17:40;20.00;99.90
38209;DHT22;24016;52.102;11.584;2023-07-31T10:20:07;20.10;99.90
38209;DHT22;24016;52.102;11.584;2023-07-31T10:22:34;20.00;99.90
38209;DHT22;24016;52.102;11.584;2023-07-31T10:25:00;20.00;99.90
38209;DHT22;24016;52.102;11.584;2023-07-31T10:27:26;19.90;99.90
38209;DHT22;24016;52.102;11.584;2023-07-31T10:29:54;19.80;99.90
38209;DHT22;24016;52.102;11.584;2023-07-31T10:32:20;19.80;99.90
38209;DHT22;24016;52.102;11.584;2023-07-31T10:34:46;19.70;99.90
38209;DHT22;24016;52.102;11.584;2023-07-31T10:42:31;19.30;99.90
38209;DHT22;24016;52.102;11.584;2023-07-31T10:44:58;19.10;99.90
38209;DHT22;24016;52.102;11.584;2023-07-31T10:47:25;19.10;99.90
38209;DHT22;24016;52.102;11.584;2023-07-31T10:49:50;19.00;99.90
38209;DHT22;24016;52.102;11.584;2023-07-31T10:52:20;18.90;99.90
38209;DHT22;24016;52.102;11.584;2023-07-31T10:54:49;18.90;99.90
38209;DHT22;24016;52.102;11.584;2023-07-31T10:57:22;19.00;99.90
38209;DHT22;24016;52.102;11.584;2023-07-31T10:59:49;19.10;99.90
38209;DHT22;24016;52.102;11.584;2023-07-31T11:02:26;19.30;99.90
38209;DHT22;24016;52.102;11.584;2023-07-31T11:05:12;19.70;99.90
38209;DHT22;24016;52.102;11.584;2023-07-31T11:07:50;19.90;99.90
38209;DHT22;24016;52.102;11.584;2023-07-31T11:10:19;20.10;99.90
38209;DHT22;24016;52.102;11.584;2023-07-31T11:12:47;20.20;99.90
38209;DHT22;24016;52.102;11.584;2023-07-31T11:15:13;20.20;99.90
38209;DHT22;24016;52.102;11.584;2023-07-31T11:17:39;20.20;99.90
38209;DHT22;24016;52.102;11.584;2023-07-31T11:20:06;20.10;99.90
38209;DHT22;24016;52.102;11.584;2023-07-31T11:22:34;19.90;99.90
38209;DHT22;24016;52.102;11.584;2023-07-31T11:25:00;19.80;99.90
38209;DHT22;24016;52.102;11.584;2023-07-31T11:27:28;20.00;99.90
38209;DHT22;24016;52.102;11.584;2023-07-31T11:30:00;20.10;99.90
38209;DHT22;24016;52.102;11.584;2023-07-31T11:32:26;20.20;99.90
38209;DHT22;24016;52.102;11.584;2023-07-31T11:34:55;20.30;99.90
38209;DHT22;24016;52.102;11.584;2023-07-31T11:37:22;20.40;99.90
38209;DHT22;24016;52.102;11.584;2023-07-31T11:40:01;20.50;99.90
38209;DHT22;24016;52.102;11.584;2023-07-31T11:42:27;20.60;99.90
38209;DHT22;24016;52.102;11.584;2023-07-31T11:44:53;20.70;99.90
38209;DHT22;24016;52.102;11.584;2023-07-31T11:47:19;21.10;99.90
38209;DHT22;24016;52.102;11.584;2023-07-31T11:49:45;21.50;99.90
38209;DHT22;24016;52.102;11.584;2023-07-31T11:52:11;22.10;99.90
38209;DHT22;24016;52.102;11.584;2023-07-31T11:54:37;22.30;99.90
38209;DHT22;24016;52.102;11.584;2023-07-31T11:57:04;22.50;99.90
38209;DHT22;24016;52.102;11.584;2023-07-31T11:59:30;22.10;99.90
38209;DHT22;24016;52.102;11.584;2023-07-31T12:01:56;21.80;99.90
38209;DHT22;24016;52.102;11.584;2023-07-31T12:04:21;21.50;99.90
38209;DHT22;24016;52.102;11.584;2023-07-31T12:06:48;21.50;99.90
38209;DHT22;24016;52.102;11.584;2023-07-31T12:09:15;21.80;99.90
38209;DHT22;24016;52.102;11.584;2023-07-31T12:11:47;22.00;99.90
38209;DHT22;24016;52.102;11.584;2023-07-31T12:14:33;22.10;99.90
38209;DHT22;24016;52.102;11.584;2023-07-31T12:17:04;22.00;99.90
38209;DHT22;24016;52.102;11.584;2023-07-31T12:19:30;22.20;99.90
38209;DHT22;24016;52.102;11.584;2023-07-31T12:21:57;22.60;99.90
38209;DHT22;24016;52.102;11.584;2023-07-31T12:24:23;23.70;99.90
38209;DHT22;24016;52.102;11.584;2023-07-31T12:26:49;25.00;99.90
38209;DHT22;24016;52.102;11.584;2023-07-31T12:29:15;26.40;99.90
38209;DHT22;24016;52.102;11.584;2023-07-31T12:31:43;26.30;99.90
38209;DHT22;24016;52.102;11.584;2023-07-31T12:34:16;26.10;99.90
38209;DHT22;24016;52.102;11.584;2023-07-31T12:36:46;25.60;99.90
38209;DHT22;24016;52.102;11.584;2023-07-31T12:39:14;24.70;99.90
38209;DHT22;24016;52.102;11.584;2023-07-31T12:41:40;24.40;99.90
38209;DHT22;24016;52.102;11.584;2023-07-31T12:44:05;24.30;99.90
38209;DHT22;24016;52.102;11.584;2023-07-31T12:46:31;24.50;99.90
38209;DHT22;24016;52.102;11.584;2023-07-31T12:48:57;24.80;99.90
38209;DHT22;24016;52.102;11.584;2023-07-31T12:51:22;24.70;99.90
38209;DHT22;24016;52.102;11.584;2023-07-31T12:53:48;24.30;99.90
38209;DHT22;24016;52.102;11.584;2023-07-31T12:56:13;23.80;99.90
38209;DHT22;24016;52.102;11.584;2023-07-31T12:58:39;23.50;99.90
38209;DHT22;24016;52.102;11.584;2023-07-31T13:01:04;23.30;99.90
38209;DHT22;24016;52.102;11.584;2023-07-31T13:03:31;23.10;99.90
38209;DHT22;24016;52.102;11.584;2023-07-31T13:05:57;22.80;99.90
38209;DHT22;24016;52.102;11.584;2023-07-31T13:08:23;22.70;99.90
38209;DHT22;24016;52.102;11.584;2023-07-31T13:10:48;22.30;99.90
38209;DHT22;24016;52.102;11.584;2023-07-31T13:13:14;22.20;99.90
38209;DHT22;24016;52.102;11.584;2023-07-31T13:15:39;22.10;99.90
38209;DHT22;24016;52.102;11.584;2023-07-31T13:18:05;21.70;99.90
38209;DHT22;24016;52.102;11.584;2023-07-31T13:20:31;21.60;99.90
38209;DHT22;24016;52.102;11.584;2023-07-31T13:22:56;21.60;99.90
38209;DHT22;24016;52.102;11.584;2023-07-31T13:25:22;21.60;99.90
38209;DHT22;24016;52.102;11.584;2023-07-31T13:27:47;21.70;99.90
38209;DHT22;24016;52.102;11.584;2023-07-31T13:30:13;21.80;99.90
38209;DHT22;24016;52.102;11.584;2023-07-31T13:32:39;21.90;99.90
38209;DHT22;24016;52.102;11.584;2023-07-31T13:35:08;21.80;99.90
38209;DHT22;24016;52.102;11.584;2023-07-31T13:37:34;21.90;99.90
38209;DHT22;24016;52.102;11.584;2023-07-31T13:40:00;21.90;99.90
38209;DHT22;24016;52.102;11.584;2023-07-31T13:42:26;21.80;99.90
38209;DHT22;24016;52.102;11.584;2023-07-31T13:44:53;21.80;99.90
38209;DHT22;24016;52.102;11.584;2023-07-31T13:47:19;21.70;99.90
38209;DHT22;24016;52.102;11.584;2023-07-31T13:49:45;21.70;99.90
38209;DHT22;24016;52.102;11.584;2023-07-31T13:52:10;21.70;99.90
38209;DHT22;24016;52.102;11.584;2023-07-31T13:54:36;21.90;99.90
38209;DHT22;24016;52.102;11.584;2023-07-31T13:57:02;22.00;99.90
38209;DHT22;24016;52.102;11.584;2023-07-31T13:59:28;22.20;99.90
38209;DHT22;24016;52.102;11.584;2023-07-31T14:01:53;22.10;99.90
38209;DHT22;24016;52.102;11.584;2023-07-31T14:04:19;21.90;99.90
38209;DHT22;24016;52.102;11.584;2023-07-31T14:06:44;21.70;99.90
38209;DHT22;24016;52.102;11.584;2023-07-31T14:09:10;21.80;99.90
38209;DHT22;24016;52.102;11.584;2023-07-31T14:11:35;22.20;99.90
38209;DHT22;24016;52.102;11.584;2023-07-31T14:14:01;22.70;99.90
38209;DHT22;24016;52.102;11.584;2023-07-31T14:16:27;22.80;99.90
38209;DHT22;24016;52.102;11.584;2023-07-31T14:18:53;23.10;99.90
38209;DHT22;24016;52.102;11.584;2023-07-31T14:21:19;22.70;99.90
38209;DHT22;24016;52.102;11.584;2023-07-31T14:23:45;22.50;99.90
38209;DHT22;24016;52.102;11.584;2023-07-31T14:26:11;22.50;99.90
38209;DHT22;24016;52.102;11.584;2023-07-31T14:28:36;22.30;99.90
38209;DHT22;24016;52.102;11.584;2023-07-31T14:31:02;22.40;99.90
38209;DHT22;24016;52.102;11.584;2023-07-31T14:33:28;22.30;99.90
38209;DHT22;24016;52.102;11.584;2023-07-31T14:35:53;22.20;99.90
38209;DHT22;24016;52.102;11.584;2023-07-31T14:38:19;21.90;99.90
38209;DHT22;24016;52.102;11.584;2023-07-31T14:40:45;21.60;99.90
38209;DHT22;24016;52.102;11.584;2023-07-31T14:43:10;21.40;99.90
38209;DHT22;24016;52.102;11.584;2023-07-31T14:45:36;21.40;99.90
38209;DHT22;24016;52.102;11.584;2023-07-31T14:48:02;21.60;99.90
38209;DHT22;24016;52.102;11.584;2023-07-31T14:50:28;21.70;99.90
38209;DHT22;24016;52.102;11.584;2023-07-31T14:52:53;21.80;99.90
38209;DHT22;24016;52.102;11.584;2023-07-31T14:55:19;21.70;99.90
38209;DHT22;24016;52.102;11.584;2023-07-31T14:57:45;21.60;99.90
38209;DHT22;24016;52.102;11.584;2023-07-31T15:00:11;21.50;99.90
38209;DHT22;24016;52.102;11.584;2023-07-31T15:02:37;21.30;99.90
38209;DHT22;24016;52.102;11.584;2023-07-31T15:05:03;21.10;99.90
38209;DHT22;24016;52.102;11.584;2023-07-31T15:07:29;21.00;99.90
38209;DHT22;24016;52.102;11.584;2023-07-31T15:09:55;20.70;99.90
38209;DHT22;24016;52.102;11.584;2023-07-31T15:12:20;20.60;99.90
38209;DHT22;24016;52.102;11.584;2023-07-31T15:14:47;20.40;99.90
38209;DHT22;24016;52.102;11.584;2023-07-31T15:17:13;20.30;99.90
38209;DHT22;24016;52.102;11.584;2023-07-31T15:19:38;20.20;99.90
38209;DHT22;24016;52.102;11.584;2023-07-31T15:22:04;20.20;99.90
38209;DHT22;24016;52.102;11.584;2023-07-31T15:24:29;20.30;99.90
38209;DHT22;24016;52.102;11.584;2023-07-31T15:26:55;20.30;99.90